Time;durP1;ratioP1;P1;durP2;ratioP2;P2;SDS_P1;SDS_P2;PMS_P1;PMS_P2;Temp;Humidity;BMP_temperature;BMP_pressure;BME280_temperature;BME280_humidity;BME280_pressure;Samples;Min_cycle;Max_cycle;Signal;HPM_P1;HPM_P2
2022/02/17 00:01:32;;;;;;;1.00;0.80;;;13.60;70.40;;;;;;4987943;28;20476;-78
2022/02/17 00:03:58;;;;;;;5.47;1.00;;;13.60;70.70;;;;;;4976130;28;20428;-76
2022/02/17 00:06:23;;;;;;;2.63;0.97;;;13.50;70.70;;;;;;4998421;28;20592;-77
2022/02/17 00:08:49;;;;;;;3.07;0.90;;;13.50;71.10;;;;;;4997716;28;20201;-77
2022/02/17 00:11:14;;;;;;;4.97;1.50;;;13.50;70.90;;;;;;4997112;28;20189;-76
2022/02/17 00:13:40;;;;;;;3.47;0.97;;;13.50;71.20;;;;;;4997964;28;20196;-75
2022/02/17 00:16:06;;;;;;;4.37;1.00;;;13.50;72.70;;;;;;4980523;28;20196;-77
2022/02/17 00:18:31;;;;;;;7.63;0.90;;;13.40;73.20;;;;;;4996638;28;20264;-79
2022/02/17 00:20:57;;;;;;;4.77;1.10;;;13.30;75.70;;;;;;4980456;28;20716;-76
2022/02/17 00:23:24;;;;;;;4.10;1.33;;;13.30;78.00;;;;;;4998367;28;20188;-78
2022/02/17 00:25:49;;;;;;;2.40;1.00;;;13.30;74.50;;;;;;5001285;28;20239;-79
2022/02/17 00:28:15;;;;;;;2.80;0.80;;;13.30;75.60;;;;;;4997709;28;20936;-78
2022/02/17 00:30:40;;;;;;;1.57;0.83;;;13.30;78.00;;;;;;4997046;28;20181;-76
2022/02/17 00:33:06;;;;;;;4.50;1.30;;;13.20;82.00;;;;;;4979028;28;20449;-78
2022/02/17 00:35:33;;;;;;;2.92;1.05;;;13.10;83.60;;;;;;4997395;28;20387;-78
2022/02/17 00:37:59;;;;;;;4.47;1.30;;;13.10;81.60;;;;;;4998616;28;20752;-78
2022/02/17 00:40:25;;;;;;;2.10;1.30;;;13.10;77.90;;;;;;4998217;28;20757;-78
2022/02/17 00:42:51;;;;;;;3.35;1.60;;;13.10;78.70;;;;;;5000106;28;20485;-77
2022/02/17 00:45:16;;;;;;;2.77;1.03;;;13.10;78.10;;;;;;4999372;28;20501;-77
2022/02/17 00:47:42;;;;;;;3.25;1.23;;;13.20;78.60;;;;;;4998567;28;20453;-77
2022/02/17 00:50:08;;;;;;;3.30;1.10;;;13.20;79.50;;;;;;5000164;28;20399;-76
2022/02/17 00:52:34;;;;;;;2.70;1.37;;;13.20;80.30;;;;;;5003367;28;20493;-77
2022/02/17 00:55:00;;;;;;;1.80;1.00;;;13.10;83.10;;;;;;5005861;28;20393;-76
2022/02/17 00:57:25;;;;;;;1.70;1.10;;;13.00;82.00;;;;;;5000139;28;20378;-76
2022/02/17 00:59:51;;;;;;;3.80;1.30;;;13.00;82.90;;;;;;4998907;28;20497;-76
2022/02/17 01:02:16;;;;;;;3.17;1.03;;;13.00;80.60;;;;;;5001431;28;20411;-77
2022/02/17 01:04:42;;;;;;;3.70;1.20;;;13.00;81.20;;;;;;4994481;28;20433;-76
2022/02/17 01:07:08;;;;;;;3.88;1.40;;;12.90;87.20;;;;;;5001673;28;20417;-77
2022/02/17 01:09:33;;;;;;;4.18;1.30;;;12.90;90.80;;;;;;4980314;28;20444;-78
2022/02/17 01:11:59;;;;;;;4.35;1.48;;;12.70;93.50;;;;;;4998140;28;20808;-79
2022/02/17 01:14:25;;;;;;;4.77;1.20;;;12.60;97.70;;;;;;4996713;28;20387;-78
2022/02/17 01:16:51;;;;;;;5.33;1.60;;;12.60;99.90;;;;;;4996212;28;20895;-77
2022/02/17 01:29:59;;;;;;;6.38;1.63;;;12.20;95.60;;;;;;4999426;28;20410;-77
2022/02/17 01:35:47;;;;;;;7.43;2.10;;;12.30;85.30;;;;;;5001241;28;20425;-77
2022/02/17 01:38:13;;;;;;;8.00;1.80;;;12.40;84.40;;;;;;4996461;28;20426;-76
2022/02/17 01:40:39;;;;;;;10.65;2.30;;;12.40;80.20;;;;;;4999801;28;20919;-76
2022/02/17 01:43:05;;;;;;;10.38;2.30;;;12.40;87.00;;;;;;4999360;28;20386;-75
2022/02/17 01:45:31;;;;;;;7.40;1.92;;;12.30;88.70;;;;;;4991652;28;20477;-75
2022/02/17 01:47:56;;;;;;;6.47;2.60;;;12.20;89.60;;;;;;5011368;23;20442;-73
2022/02/17 01:50:22;;;;;;;5.80;2.13;;;12.20;91.10;;;;;;5040237;28;20390;-73
2022/02/17 01:52:47;;;;;;;8.63;1.50;;;12.10;94.40;;;;;;5051404;28;20389;-73
2022/02/17 01:55:13;;;;;;;7.47;2.20;;;12.10;95.90;;;;;;5041383;28;20386;-73
2022/02/17 01:57:40;;;;;;;6.90;2.00;;;12.10;94.80;;;;;;5011207;28;20451;-73
2022/02/17 02:00:06;;;;;;;8.00;2.20;;;12.00;95.60;;;;;;5011295;28;20407;-73
2022/02/17 02:02:32;;;;;;;14.17;2.03;;;12.00;95.80;;;;;;5011134;28;20397;-73
2022/02/17 02:04:58;;;;;;;6.03;2.13;;;11.90;93.70;;;;;;5012960;28;20389;-73
2022/02/17 02:07:24;;;;;;;10.82;2.80;;;12.00;90.80;;;;;;5030580;28;20386;-73
2022/02/17 02:09:50;;;;;;;10.73;2.63;;;12.00;90.60;;;;;;5031111;28;20425;-74
2022/02/17 02:12:16;;;;;;;11.55;2.80;;;11.90;92.10;;;;;;5031114;28;20410;-74
2022/02/17 02:14:53;;;;;;;9.60;2.60;;;11.90;92.60;;;;;;5031342;28;20406;-74
2022/02/17 02:17:23;;;;;;;9.95;2.47;;;11.90;94.50;;;;;;5011323;28;20457;-74
2022/02/17 02:19:50;;;;;;;11.45;2.80;;;11.80;97.60;;;;;;5011059;28;20388;-74
2022/02/17 02:22:16;;;;;;;13.00;2.70;;;11.80;81.20;;;;;;5010887;28;20423;-73
2022/02/17 02:24:42;;;;;;;15.30;3.25;;;11.70;74.00;;;;;;5010972;28;20381;-73
2022/02/17 02:27:14;;;;;;;13.13;2.70;;;11.60;73.60;;;;;;5028441;28;20395;-73
2022/02/17 02:29:41;;;;;;;18.92;3.60;;;11.60;77.30;;;;;;5030198;28;20400;-72
2022/02/17 02:32:07;;;;;;;18.20;3.60;;;11.50;76.10;;;;;;5030507;28;20432;-72
2022/02/17 02:34:34;;;;;;;16.33;3.53;;;11.50;71.70;;;;;;5030609;28;20867;-72
2022/02/17 02:36:59;;;;;;;19.98;3.40;;;11.50;71.40;;;;;;5022582;28;20812;-72
2022/02/17 02:39:25;;;;;;;15.03;3.70;;;11.60;69.40;;;;;;5013392;28;20524;-72
2022/02/17 02:41:50;;;;;;;17.07;3.40;;;11.70;64.80;;;;;;5031391;28;20416;-73
2022/02/17 02:44:16;;;;;;;17.07;3.60;;;11.80;65.10;;;;;;5033412;28;20895;-73
2022/02/17 02:46:41;;;;;;;21.00;3.60;;;11.80;57.80;;;;;;5031142;28;20947;-72
2022/02/17 02:49:07;;;;;;;15.13;3.73;;;11.90;55.30;;;;;;4997287;28;1054889;-73
2022/02/17 02:51:33;;;;;;;24.50;4.20;;;11.80;59.30;;;;;;5051924;28;20389;-73
2022/02/17 02:53:59;;;;;;;24.90;4.18;;;11.70;61.40;;;;;;5053458;28;20401;-75
2022/02/17 02:56:25;;;;;;;16.90;3.33;;;11.50;68.10;;;;;;5034062;28;20522;-74
2022/02/17 02:58:50;;;;;;;23.80;4.57;;;11.30;70.60;;;;;;5026885;28;20950;-74
2022/02/17 03:01:19;;;;;;;16.80;3.70;;;11.10;73.60;;;;;;5028572;28;20875;-74
2022/02/17 03:03:48;;;;;;;16.85;4.28;;;11.00;67.30;;;;;;5028910;28;20384;-74
2022/02/17 03:06:14;;;;;;;14.10;3.42;;;11.00;66.10;;;;;;5022393;28;20387;-73
2022/02/17 03:08:39;;;;;;;17.43;4.00;;;10.90;65.50;;;;;;5030093;28;20753;-74
2022/02/17 03:11:05;;;;;;;17.77;4.60;;;10.90;64.40;;;;;;5030138;28;20482;-73
2022/02/17 03:13:30;;;;;;;22.30;4.80;;;10.90;64.10;;;;;;5030208;28;20391;-74
2022/02/17 03:15:57;;;;;;;26.03;4.70;;;10.90;63.60;;;;;;5028896;28;20401;-74
2022/02/17 03:18:22;;;;;;;22.33;4.35;;;10.90;64.90;;;;;;5029213;28;20460;-74
2022/02/17 03:20:48;;;;;;;23.30;5.73;;;11.00;58.90;;;;;;5030498;28;20406;-74
2022/02/17 03:23:14;;;;;;;22.98;5.30;;;11.00;57.70;;;;;;5025128;28;20408;-75
2022/02/17 03:25:40;;;;;;;21.90;5.40;;;11.00;56.50;;;;;;5031512;28;20787;-75
2022/02/17 03:28:05;;;;;;;19.08;4.97;;;11.10;55.50;;;;;;5030096;28;20856;-75
2022/02/17 03:30:31;;;;;;;20.63;4.70;;;11.20;50.60;;;;;;5028592;28;20482;-76
2022/02/17 03:32:57;;;;;;;25.02;5.00;;;11.30;49.30;;;;;;5030195;28;20395;-75
2022/02/17 03:35:23;;;;;;;24.35;5.25;;;11.40;46.10;;;;;;5024572;28;20396;-74
2022/02/17 03:37:49;;;;;;;19.20;3.97;;;11.50;46.00;;;;;;5039651;28;20408;-75
2022/02/17 03:40:15;;;;;;;22.60;5.10;;;11.60;40.40;;;;;;5032304;28;20422;-74
2022/02/17 03:42:43;;;;;;;23.57;5.07;;;11.60;41.70;;;;;;5035175;28;20898;-74
2022/02/17 03:45:09;;;;;;;23.60;5.20;;;11.60;40.10;;;;;;5050279;28;20420;-75
2022/02/17 03:47:35;;;;;;;18.60;4.63;;;11.70;40.00;;;;;;5033577;28;20450;-74
2022/02/17 03:50:02;;;;;;;25.92;4.90;;;11.80;38.50;;;;;;5039318;28;20708;-74
2022/02/17 03:52:28;;;;;;;18.98;4.13;;;11.70;36.40;;;;;;5052446;28;20385;-75
2022/02/17 03:54:54;;;;;;;25.63;4.70;;;11.70;34.50;;;;;;5038939;28;20403;-75
2022/02/17 03:57:20;;;;;;;15.00;4.10;;;11.70;33.70;;;;;;5015346;28;20483;-74
2022/02/17 03:59:45;;;;;;;18.92;4.10;;;11.70;31.10;;;;;;5048039;28;20385;-74
2022/02/17 04:02:11;;;;;;;17.45;3.72;;;11.70;31.20;;;;;;5049144;28;20614;-74
2022/02/17 04:04:37;;;;;;;18.65;3.80;;;11.60;30.20;;;;;;5032310;28;20454;-74
2022/02/17 04:07:04;;;;;;;25.67;4.20;;;11.60;30.90;;;;;;5027933;28;20475;-75
2022/02/17 04:09:29;;;;;;;22.40;3.97;;;11.60;30.50;;;;;;5031850;28;20399;-75
2022/02/17 04:11:55;;;;;;;22.55;4.38;;;11.60;30.30;;;;;;5035647;28;20391;-74
2022/02/17 04:14:21;;;;;;;12.63;3.67;;;11.70;31.10;;;;;;5032931;28;20426;-75
2022/02/17 04:16:47;;;;;;;22.38;3.95;;;11.60;31.40;;;;;;5029335;28;20434;-75
2022/02/17 04:19:13;;;;;;;21.30;4.40;;;11.70;31.60;;;;;;5014118;28;20396;-75
2022/02/17 04:21:39;;;;;;;16.70;4.25;;;11.60;31.40;;;;;;5014167;28;20412;-75
2022/02/17 04:24:05;;;;;;;17.15;4.10;;;11.70;31.80;;;;;;5028623;28;20863;-75
2022/02/17 04:26:31;;;;;;;18.65;4.20;;;11.60;31.50;;;;;;5029107;28;20926;-75
2022/02/17 04:28:57;;;;;;;21.35;4.38;;;11.70;31.90;;;;;;5034071;28;20403;-75
2022/02/17 04:31:23;;;;;;;28.17;5.60;;;11.70;32.40;;;;;;5033700;28;20931;-73
2022/02/17 04:33:49;;;;;;;22.67;4.40;;;11.70;33.40;;;;;;5028511;28;20392;-75
2022/02/17 04:36:15;;;;;;;25.23;5.70;;;11.70;33.10;;;;;;5019631;28;20398;-74
2022/02/17 04:38:41;;;;;;;19.93;4.77;;;11.70;33.60;;;;;;5033458;28;20458;-76
2022/02/17 04:43:50;;;;;;;24.77;5.75;;;11.70;33.20;;;;;;5014043;28;20787;-74
2022/02/17 04:46:17;;;;;;;25.15;6.07;;;11.70;33.50;;;;;;5018469;28;20470;-74
2022/02/17 04:48:42;;;;;;;29.45;5.20;;;11.70;33.60;;;;;;5031399;28;20422;-74
2022/02/17 04:51:08;;;;;;;20.92;5.45;;;11.70;33.60;;;;;;5047961;28;20381;-74
2022/02/17 04:53:34;;;;;;;25.55;5.65;;;11.70;33.70;;;;;;5053611;28;20469;-74
2022/02/17 04:56:00;;;;;;;26.83;4.32;;;11.60;32.00;;;;;;5021326;28;20459;-76
2022/02/17 04:58:25;;;;;;;19.75;4.95;;;11.60;32.50;;;;;;5025961;28;20396;-76
2022/02/17 05:00:51;;;;;;;27.00;5.50;;;11.50;31.60;;;;;;5013807;28;20417;-75
2022/02/17 05:03:17;;;;;;;23.52;5.88;;;11.50;31.70;;;;;;5013536;28;20387;-75
2022/02/17 05:05:43;;;;;;;23.75;5.03;;;11.50;32.00;;;;;;5028203;28;21049;-75
2022/02/17 05:08:09;;;;;;;16.85;4.90;;;11.50;32.20;;;;;;5012585;28;20389;-75
2022/02/17 05:10:38;;;;;;;30.95;5.65;;;11.50;31.60;;;;;;5013145;28;20389;-75
2022/02/17 05:13:05;;;;;;;26.80;5.65;;;11.50;30.80;;;;;;5012987;28;20393;-75
2022/02/17 05:15:31;;;;;;;18.23;4.30;;;11.50;31.10;;;;;;5043213;28;20403;-74
2022/02/17 05:17:57;;;;;;;26.87;5.77;;;11.50;30.90;;;;;;5032105;28;20399;-74
2022/02/17 05:20:23;;;;;;;26.40;5.55;;;11.50;30.70;;;;;;5030830;28;20403;-73
2022/02/17 05:22:49;;;;;;;33.70;5.88;;;11.50;31.50;;;;;;5031461;28;20419;-73
2022/02/17 05:25:16;;;;;;;26.30;5.73;;;11.40;32.80;;;;;;5029982;28;20417;-75
2022/02/17 05:27:47;;;;;;;27.60;5.95;;;11.40;33.50;;;;;;5031273;28;20387;-75
2022/02/17 05:30:13;;;;;;;31.45;5.95;;;11.30;33.30;;;;;;5032083;28;20513;-73
2022/02/17 05:32:42;;;;;;;25.88;5.93;;;11.20;34.30;;;;;;5018954;28;20436;-73
2022/02/17 05:35:09;;;;;;;32.60;6.40;;;11.20;33.70;;;;;;5018760;28;20403;-74
2022/02/17 05:37:35;;;;;;;37.00;6.25;;;11.20;34.20;;;;;;5030712;28;20965;-74
2022/02/17 05:40:02;;;;;;;30.70;6.47;;;11.20;34.20;;;;;;5032547;28;20426;-74
2022/02/17 05:42:28;;;;;;;27.60;5.43;;;11.20;34.40;;;;;;5020198;28;20397;-74
2022/02/17 05:44:54;;;;;;;37.75;7.13;;;11.10;34.60;;;;;;5015592;28;20923;-74
2022/02/17 05:47:19;;;;;;;38.72;6.05;;;11.00;33.90;;;;;;5015757;28;20392;-74
2022/02/17 05:49:45;;;;;;;32.75;6.88;;;11.10;33.30;;;;;;5026170;28;20746;-74
2022/02/17 05:52:11;;;;;;;30.85;5.90;;;11.10;33.40;;;;;;5056155;28;20397;-73
2022/02/17 05:54:36;;;;;;;32.00;6.60;;;11.20;33.00;;;;;;5038297;28;20395;-72
2022/02/17 05:57:02;;;;;;;34.03;6.18;;;11.20;32.90;;;;;;5037782;28;20430;-73
2022/02/17 05:59:28;;;;;;;38.47;6.10;;;11.20;32.60;;;;;;5032272;28;20387;-74
2022/02/17 06:01:53;;;;;;;31.57;6.90;;;11.20;32.80;;;;;;5030031;28;20406;-75
2022/02/17 06:04:19;;;;;;;30.40;6.50;;;11.20;32.90;;;;;;5030491;28;20746;-75
2022/02/17 06:06:45;;;;;;;38.17;7.03;;;11.20;32.40;;;;;;5031668;28;20775;-76
2022/02/17 06:09:11;;;;;;;30.45;6.22;;;11.20;31.90;;;;;;5030076;28;20387;-75
2022/02/17 06:11:36;;;;;;;30.85;5.82;;;11.20;31.90;;;;;;5031675;28;20693;-76
2022/02/17 06:14:02;;;;;;;30.08;6.03;;;11.20;31.30;;;;;;5022914;28;20447;-75
2022/02/17 06:16:28;;;;;;;30.05;5.50;;;11.10;31.20;;;;;;5031514;28;20713;-75
2022/02/17 06:18:53;;;;;;;30.00;5.45;;;11.10;29.70;;;;;;5031012;28;20395;-75
2022/02/17 06:21:19;;;;;;;29.20;6.05;;;11.00;29.40;;;;;;5031148;28;20505;-75
2022/02/17 06:23:44;;;;;;;28.90;6.20;;;11.00;29.40;;;;;;5031411;28;20390;-75
2022/02/17 06:26:10;;;;;;;24.60;5.35;;;10.90;29.50;;;;;;5021551;28;20902;-75
2022/02/17 06:28:36;;;;;;;32.47;5.57;;;10.90;29.10;;;;;;5030965;28;20383;-75
2022/02/17 06:31:02;;;;;;;26.90;5.68;;;10.90;29.50;;;;;;5030156;28;20391;-75
2022/02/17 06:33:28;;;;;;;26.95;5.85;;;10.90;28.10;;;;;;5031252;28;20470;-75
2022/02/17 06:35:54;;;;;;;26.17;4.93;;;11.00;28.20;;;;;;5029594;28;20885;-75
2022/02/17 06:38:20;;;;;;;21.92;5.40;;;11.00;27.50;;;;;;5011032;28;20412;-75
2022/02/17 06:40:45;;;;;;;26.65;5.50;;;11.00;27.60;;;;;;5031134;28;20407;-76
2022/02/17 06:43:13;;;;;;;18.25;4.72;;;11.00;27.40;;;;;;5025681;28;20481;-75
2022/02/17 06:45:40;;;;;;;32.95;5.70;;;11.00;27.20;;;;;;5011813;28;20399;-74
2022/02/17 06:48:07;;;;;;;22.08;5.45;;;11.00;27.20;;;;;;5027992;28;20443;-76
2022/02/17 06:50:33;;;;;;;32.25;4.95;;;11.10;27.30;;;;;;5039765;28;20435;-75
2022/02/17 06:52:59;;;;;;;25.98;5.10;;;11.10;26.80;;;;;;5030353;28;20422;-72
2022/02/17 06:55:25;;;;;;;24.48;5.18;;;11.10;25.90;;;;;;5028399;28;20892;-73
2022/02/17 06:57:51;;;;;;;33.33;5.77;;;11.10;26.50;;;;;;5031063;28;20413;-72
2022/02/17 07:00:17;;;;;;;20.83;4.53;;;11.10;26.30;;;;;;5030315;28;20510;-73
2022/02/17 07:02:57;;;;;;;24.23;4.47;;;11.10;25.90;;;;;;5020125;28;20757;-72
2022/02/17 07:05:25;;;;;;;29.60;6.10;;;11.20;25.90;;;;;;5011349;28;20495;-73
2022/02/17 07:07:50;;;;;;;27.33;5.03;;;11.10;26.40;;;;;;5010490;28;20380;-73
2022/02/17 07:10:54;;;;;;;38.80;5.03;;;11.10;26.10;;;;;;5021582;28;20792;-72
2022/02/17 07:13:06;;;;;;;25.05;4.82;;;11.10;26.40;;;;;;5032549;28;20791;-72
2022/02/17 07:15:35;;;;;;;23.25;5.32;;;11.00;25.80;;;;;;5028346;28;20395;-73
2022/02/17 07:18:07;;;;;;;21.85;4.50;;;11.10;26.40;;;;;;5043668;28;20402;-71
2022/02/17 07:20:35;;;;;;;25.35;4.35;;;11.20;27.50;;;;;;5031612;28;20497;-75
2022/02/17 07:23:02;;;;;;;24.70;4.85;;;11.10;25.80;;;;;;5028570;28;20391;-74
2022/02/17 07:25:28;;;;;;;26.13;4.63;;;11.00;25.20;;;;;;5015820;28;20389;-73
2022/02/17 07:27:54;;;;;;;19.42;4.30;;;11.00;24.90;;;;;;5026261;28;20455;-76
2022/02/17 07:30:20;;;;;;;29.80;4.18;;;11.10;24.60;;;;;;5029265;28;20398;-75
2022/02/17 07:32:45;;;;;;;18.70;4.00;;;11.10;24.40;;;;;;5031737;28;20747;-75
2022/02/17 07:35:11;;;;;;;22.67;4.18;;;11.00;24.60;;;;;;5031853;28;20831;-76
2022/02/17 07:37:38;;;;;;;23.55;4.57;;;10.90;24.80;;;;;;5031020;28;20455;-76
2022/02/17 07:40:05;;;;;;;27.90;5.55;;;10.90;25.90;;;;;;5029291;28;20603;-77
2022/02/17 07:42:31;;;;;;;22.58;4.53;;;10.90;26.50;;;;;;5029415;28;20419;-76
2022/02/17 07:44:56;;;;;;;20.23;4.22;;;10.80;26.40;;;;;;5021922;28;20739;-75
2022/02/17 07:47:25;;;;;;;23.70;5.70;;;10.90;25.30;;;;;;5013517;28;20427;-75
2022/02/17 07:49:54;;;;;;;29.80;5.90;;;10.90;25.60;;;;;;5022648;28;20781;-76
2022/02/17 07:52:20;;;;;;;18.00;4.13;;;11.10;25.10;;;;;;5020486;28;20402;-77
2022/02/17 07:54:46;;;;;;;25.45;5.18;;;11.00;25.70;;;;;;5025143;28;20439;-76
2022/02/17 07:57:12;;;;;;;21.27;4.22;;;11.00;24.80;;;;;;5019408;28;20488;-75
2022/02/17 07:59:37;;;;;;;24.90;4.25;;;11.00;25.00;;;;;;5024865;28;20406;-74
2022/02/17 08:02:03;;;;;;;21.10;4.73;;;11.10;25.00;;;;;;5018869;28;20418;-74
2022/02/17 08:04:30;;;;;;;18.52;4.55;;;11.20;24.20;;;;;;5018792;28;20493;-75
2022/02/17 08:06:56;;;;;;;28.30;5.22;;;11.20;24.00;;;;;;5018622;28;20419;-75
2022/02/17 08:09:22;;;;;;;19.60;4.90;;;11.20;23.50;;;;;;5015249;28;20835;-74
2022/02/17 08:11:48;;;;;;;17.75;4.35;;;11.20;24.00;;;;;;5021574;28;20446;-73
2022/02/17 08:14:13;;;;;;;26.40;4.35;;;11.10;23.00;;;;;;5025081;28;20418;-74
2022/02/17 08:16:39;;;;;;;19.63;4.10;;;11.00;22.70;;;;;;5019383;28;20495;-74
2022/02/17 08:19:07;;;;;;;22.42;3.92;;;11.20;22.50;;;;;;5024356;28;20399;-75
2022/02/17 08:21:33;;;;;;;20.48;3.88;;;11.10;23.30;;;;;;5024983;28;20423;-74
2022/02/17 08:23:58;;;;;;;28.60;5.88;;;11.10;24.00;;;;;;5026707;28;20745;-74
2022/02/17 08:26:24;;;;;;;22.90;5.23;;;11.20;24.20;;;;;;5027603;28;20389;-73
2022/02/17 08:28:55;;;;;;;26.47;4.93;;;11.30;24.10;;;;;;5022665;28;20404;-74
2022/02/17 08:31:21;;;;;;;20.35;4.40;;;11.20;24.20;;;;;;5014748;28;20416;-75
2022/02/17 08:33:47;;;;;;;26.60;5.43;;;11.20;24.90;;;;;;5019547;28;20517;-76
2022/02/17 08:36:12;;;;;;;19.90;3.83;;;11.30;24.60;;;;;;5038475;28;20418;-76
2022/02/17 08:38:38;;;;;;;26.77;4.83;;;11.30;24.40;;;;;;5024680;28;20494;-76
2022/02/17 08:41:06;;;;;;;23.23;4.70;;;11.30;24.30;;;;;;5036395;28;20408;-76
2022/02/17 08:43:32;;;;;;;21.30;4.60;;;11.30;23.20;;;;;;5023031;28;20403;-74
2022/02/17 08:45:57;;;;;;;19.58;4.72;;;11.30;23.10;;;;;;5029276;28;20401;-77
2022/02/17 08:48:23;;;;;;;20.42;3.80;;;11.30;23.30;;;;;;5028011;28;20406;-76
2022/02/17 08:50:49;;;;;;;16.25;4.20;;;11.40;23.10;;;;;;5031822;28;20496;-75
2022/02/17 08:53:14;;;;;;;22.50;4.60;;;11.50;22.90;;;;;;5028896;28;20411;-75
2022/02/17 08:55:40;;;;;;;26.70;4.30;;;11.30;22.30;;;;;;5028857;28;20404;-74
2022/02/17 08:58:05;;;;;;;33.03;5.95;;;11.30;23.00;;;;;;5033182;28;20926;-75
2022/02/17 09:00:31;;;;;;;22.48;4.35;;;11.30;22.90;;;;;;5034407;28;20411;-74
2022/02/17 09:02:57;;;;;;;17.30;4.20;;;11.30;23.00;;;;;;5026564;28;20399;-77
2022/02/17 09:05:24;;;;;;;23.30;4.50;;;11.30;23.20;;;;;;5026540;28;20395;-75
2022/02/17 09:07:50;;;;;;;19.23;3.80;;;11.40;21.40;;;;;;5026424;28;20898;-74
2022/02/17 09:10:15;;;;;;;26.58;4.50;;;11.40;21.30;;;;;;5026046;28;20405;-75
2022/02/17 09:12:41;;;;;;;23.60;4.45;;;11.40;21.10;;;;;;5022027;28;20445;-74
2022/02/17 09:15:09;;;;;;;20.10;3.70;;;11.40;20.90;;;;;;5020641;28;20397;-75
2022/02/17 09:17:35;;;;;;;20.67;3.72;;;11.30;19.90;;;;;;5030083;28;20418;-74
2022/02/17 09:20:01;;;;;;;23.58;4.85;;;11.40;20.40;;;;;;5024091;28;20455;-72
2022/02/17 09:22:26;;;;;;;19.50;4.63;;;11.30;20.70;;;;;;5021343;28;20767;-74
2022/02/17 09:24:52;;;;;;;21.20;4.60;;;11.40;20.30;;;;;;5020817;28;20431;-72
2022/02/17 09:27:17;;;;;;;22.70;4.20;;;11.40;19.80;;;;;;5023835;28;20403;-74
2022/02/17 09:29:43;;;;;;;22.42;4.10;;;11.30;19.90;;;;;;5039454;28;20485;-71
2022/02/17 09:32:10;;;;;;;13.07;3.33;;;11.30;19.40;;;;;;5025716;28;20520;-72
2022/02/17 09:34:37;;;;;;;17.60;4.07;;;11.20;19.10;;;;;;5024987;28;20407;-72
2022/02/17 09:37:03;;;;;;;21.92;4.00;;;11.20;19.30;;;;;;5020519;28;20408;-72
2022/02/17 09:39:33;;;;;;;23.92;4.40;;;11.30;19.20;;;;;;5018814;28;20408;-73
2022/02/17 09:42:06;;;;;;;17.63;3.47;;;11.50;19.30;;;;;;5024809;28;20422;-72
2022/02/17 09:44:33;;;;;;;12.98;3.13;;;11.60;18.70;;;;;;5012689;28;20400;-72
2022/02/17 09:46:59;;;;;;;20.35;4.10;;;11.40;19.40;;;;;;5011993;28;20878;-72
2022/02/17 09:49:25;;;;;;;25.58;4.20;;;11.30;20.00;;;;;;5017043;28;20426;-72
2022/02/17 09:51:52;;;;;;;16.53;4.07;;;11.20;20.80;;;;;;5052045;28;20419;-73
2022/02/17 09:54:19;;;;;;;20.50;4.18;;;11.30;21.20;;;;;;5029503;28;20391;-73
2022/02/17 09:56:44;;;;;;;18.08;4.03;;;11.30;21.30;;;;;;5018216;28;20422;-71
2022/02/17 09:59:11;;;;;;;14.87;4.33;;;11.30;21.90;;;;;;5049591;28;20394;-72
2022/02/17 10:01:37;;;;;;;21.80;4.20;;;11.20;21.30;;;;;;5042362;28;20439;-72
2022/02/17 10:04:21;;;;;;;19.80;4.78;;;11.30;21.20;;;;;;5038857;28;20484;-72
2022/02/17 10:06:48;;;;;;;24.70;4.60;;;11.50;20.30;;;;;;5051574;28;20922;-71
2022/02/17 10:09:14;;;;;;;22.95;3.70;;;11.80;19.10;;;;;;5040172;28;20391;-73
2022/02/17 10:11:42;;;;;;;15.45;3.15;;;11.90;18.40;;;;;;5032077;28;20798;-72
2022/02/17 10:14:13;;;;;;;19.55;4.15;;;11.70;18.70;;;;;;5024497;28;20872;-71
2022/02/17 10:17:05;;;;;;;15.30;3.83;;;11.80;18.70;;;;;;5026365;28;20421;-72
2022/02/17 10:19:37;;;;;;;19.80;3.93;;;11.70;19.30;;;;;;5052685;28;20405;-73
2022/02/17 10:22:11;;;;;;;23.48;3.53;;;11.50;19.00;;;;;;5052697;28;20902;-72
2022/02/17 10:24:48;;;;;;;24.88;4.28;;;11.60;19.80;;;;;;5015293;28;20400;-73
2022/02/17 10:27:15;;;;;;;21.90;4.65;;;11.80;19.40;;;;;;5011939;28;20753;-73
2022/02/17 10:29:57;;;;;;;15.95;3.50;;;12.10;18.50;;;;;;5024460;28;20395;-75
2022/02/17 10:32:23;;;;;;;15.65;3.60;;;12.20;16.50;;;;;;5033328;28;20872;-74
2022/02/17 10:35:08;;;;;;;14.53;3.87;;;12.00;16.30;;;;;;5019612;28;20403;-75
2022/02/17 10:37:52;;;;;;;15.65;3.40;;;11.60;17.20;;;;;;5020185;28;20479;-73
2022/02/17 10:40:24;;;;;;;19.35;3.80;;;11.70;17.20;;;;;;5023803;28;20403;-73
2022/02/17 10:43:13;;;;;;;17.47;3.87;;;11.50;17.20;;;;;;5026739;28;20415;-74
2022/02/17 10:45:40;;;;;;;12.73;2.90;;;11.50;17.00;;;;;;5022198;28;20823;-72
2022/02/17 10:48:12;;;;;;;17.23;3.25;;;11.50;17.40;;;;;;5024344;28;20405;-74
2022/02/17 10:50:38;;;;;;;16.08;3.85;;;11.30;17.80;;;;;;5031235;28;20407;-74
2022/02/17 10:53:21;;;;;;;15.18;3.10;;;11.40;18.30;;;;;;5027724;28;20407;-75
2022/02/17 10:56:07;;;;;;;20.57;4.00;;;11.40;17.40;;;;;;5024310;28;20533;-75
2022/02/17 10:58:37;;;;;;;19.52;4.68;;;11.40;18.50;;;;;;5025318;28;20406;-75
2022/02/17 11:01:07;;;;;;;10.85;3.00;;;11.10;18.30;;;;;;5038471;28;20445;-75
2022/02/17 11:03:35;;;;;;;11.00;2.72;;;11.20;17.50;;;;;;5026951;28;20766;-74
2022/02/17 11:06:02;;;;;;;18.23;3.67;;;11.20;17.10;;;;;;5033644;28;20492;-75
2022/02/17 11:08:28;;;;;;;16.48;3.70;;;11.40;17.20;;;;;;5034526;28;20481;-74
2022/02/17 11:10:54;;;;;;;19.23;3.57;;;11.50;17.00;;;;;;5029030;28;20885;-74
2022/02/17 11:13:23;;;;;;;14.20;3.33;;;11.70;17.00;;;;;;5027143;28;20436;-74
2022/02/17 11:15:50;;;;;;;14.13;3.90;;;11.90;17.00;;;;;;5025381;28;20709;-74
2022/02/17 11:18:18;;;;;;;14.23;3.45;;;12.10;16.40;;;;;;5023781;28;20409;-74
2022/02/17 11:20:45;;;;;;;18.00;3.20;;;12.10;15.90;;;;;;5022957;28;20425;-74
2022/02/17 11:23:14;;;;;;;12.05;2.40;;;12.20;15.80;;;;;;5024456;28;20483;-74
2022/02/17 11:25:41;;;;;;;7.72;2.50;;;12.30;16.50;;;;;;5020950;28;20400;-74
2022/02/17 11:28:12;;;;;;;7.47;1.90;;;12.10;15.10;;;;;;5025251;28;20392;-74
2022/02/17 11:30:40;;;;;;;7.63;2.80;;;12.10;14.50;;;;;;5029655;28;20430;-74
2022/02/17 11:33:28;;;;;;;10.00;2.00;;;12.30;14.30;;;;;;5021916;28;20734;-75
2022/02/17 11:36:07;;;;;;;9.30;1.90;;;12.40;14.10;;;;;;5025395;28;20465;-74
2022/02/17 11:38:40;;;;;;;4.00;1.50;;;12.50;14.00;;;;;;5023472;28;20394;-74
2022/02/17 11:41:10;;;;;;;9.88;2.38;;;12.30;15.00;;;;;;5022757;28;20440;-74
2022/02/17 11:43:44;;;;;;;9.88;2.67;;;12.50;14.60;;;;;;5036334;28;20919;-74
2022/02/17 11:46:13;;;;;;;6.97;2.58;;;12.60;15.00;;;;;;5025309;28;20420;-74
2022/02/17 11:48:42;;;;;;;8.73;1.92;;;12.60;13.70;;;;;;5017647;28;20412;-74
2022/02/17 11:51:15;;;;;;;9.10;2.25;;;12.50;14.10;;;;;;5031644;28;20432;-73
2022/02/17 11:53:43;;;;;;;5.10;2.03;;;12.70;14.30;;;;;;5023534;28;20783;-73
2022/02/17 11:56:16;;;;;;;11.25;2.03;;;12.80;13.60;;;;;;5038541;28;20473;-76
2022/02/17 11:58:47;;;;;;;6.90;2.30;;;12.70;13.70;;;;;;5033365;28;20693;-73
2022/02/17 12:01:25;;;;;;;7.60;2.07;;;12.80;13.30;;;;;;5057035;28;20409;-77
2022/02/17 12:04:24;;;;;;;6.53;1.50;;;12.70;12.00;;;;;;5035002;28;20403;-74
2022/02/17 12:06:54;;;;;;;6.93;1.90;;;12.30;13.50;;;;;;5026190;28;20470;-75
2022/02/17 12:09:32;;;;;;;6.43;2.10;;;12.20;14.40;;;;;;5023532;28;20402;-75
2022/02/17 12:12:16;;;;;;;8.73;2.22;;;12.10;14.00;;;;;;5024545;28;20419;-74
2022/02/17 12:14:46;;;;;;;7.45;2.20;;;12.30;14.00;;;;;;5027842;28;20791;-75
2022/02/17 12:17:12;;;;;;;7.32;2.58;;;12.20;14.30;;;;;;5027160;28;20409;-75
2022/02/17 12:19:37;;;;;;;6.50;2.60;;;12.20;14.00;;;;;;5024245;28;21000;-74
2022/02/17 12:22:11;;;;;;;6.32;2.33;;;12.10;14.40;;;;;;5026204;28;20463;-75
2022/02/17 12:24:38;;;;;;;11.07;2.47;;;11.90;14.80;;;;;;5023497;28;20403;-73
2022/02/17 12:27:05;;;;;;;11.88;2.55;;;12.00;14.60;;;;;;5025678;28;20467;-73
2022/02/17 12:29:33;;;;;;;11.57;2.50;;;12.10;14.60;;;;;;5028960;28;20486;-74
2022/02/17 12:32:07;;;;;;;11.30;2.80;;;12.30;14.50;;;;;;5025306;28;20403;-73
2022/02/17 12:34:34;;;;;;;8.48;2.10;;;12.40;14.50;;;;;;5028099;28;20415;-74
2022/02/17 12:37:00;;;;;;;8.40;2.42;;;12.40;14.40;;;;;;5027377;28;20470;-74
2022/02/17 12:39:30;;;;;;;10.52;2.70;;;12.10;15.10;;;;;;5027620;28;20772;-75
2022/02/17 12:42:02;;;;;;;14.95;2.30;;;12.00;15.10;;;;;;5021391;28;20412;-74
2022/02/17 12:44:39;;;;;;;8.38;2.20;;;11.90;14.90;;;;;;5028906;28;20399;-74
2022/02/17 12:47:08;;;;;;;9.25;2.10;;;12.10;14.10;;;;;;5024656;28;20487;-77
2022/02/17 12:49:35;;;;;;;13.40;2.30;;;12.20;14.30;;;;;;5029138;28;20397;-74
2022/02/17 12:52:10;;;;;;;10.18;2.63;;;12.40;14.50;;;;;;5024289;28;20407;-72
2022/02/17 12:54:56;;;;;;;11.63;2.25;;;12.40;15.00;;;;;;5027209;28;20394;-72
2022/02/17 12:57:22;;;;;;;8.65;2.30;;;12.50;15.00;;;;;;5024494;28;20403;-72